Lake George, Michigan
Current Conditions -  °F | °C
As of 8:15 PM on Saturday 22 Nov 2014 (Local Time) from KMOP Reporting Station
Haze Haze  
Wind Chill: 35°   Ceiling: 200
Heat Index: 40°   Visibility: 1mi
Dew Point: 39°   Wind: 6mph
Humidity: 97%   Direction: 160°SSE
Pressure: 29.84"   Gusts: NA
Location:  43.96°N, 84.95°W
Report Text: KMOP 230115Z AUTO 16005KT 1SM BR OVC002 04/04 A2984 RMK AO2 T00420038
Loading
Personal Weather Stations






























Interactive Weather Map New forecast layout! Learn more

10-Day Weather Forecast

Advertisements
Track Severe Weather on mobile